sensor_id;sensor_type;location;lat;lon;timestamp;temperature;humidity
74934;DHT22;63499;53.232;7.492;2023-03-14T08:08:59;6.70;99.90
74934;DHT22;63499;53.232;7.492;2023-03-14T08:11:25;6.90;99.90
74934;DHT22;63499;53.232;7.492;2023-03-14T08:13:51;6.70;99.90
74934;DHT22;63499;53.232;7.492;2023-03-14T08:16:18;6.40;99.90
74934;DHT22;63499;53.232;7.492;2023-03-14T08:18:45;6.10;99.90
74934;DHT22;63499;53.232;7.492;2023-03-14T08:21:12;6.00;99.90
74934;DHT22;63499;53.232;7.492;2023-03-14T08:23:38;5.80;99.90
74934;DHT22;63499;53.232;7.492;2023-03-14T08:26:05;5.70;99.90
74934;DHT22;63499;53.232;7.492;2023-03-14T08:28:31;5.60;99.90
74934;DHT22;63499;53.232;7.492;2023-03-14T08:30:59;5.50;99.90
74934;DHT22;63499;53.232;7.492;2023-03-14T08:33:26;5.30;99.90
74934;DHT22;63499;53.232;7.492;2023-03-14T08:35:53;5.30;99.90
74934;DHT22;63499;53.232;7.492;2023-03-14T08:38:19;5.20;99.90
74934;DHT22;63499;53.232;7.492;2023-03-14T08:40:46;5.20;99.90
74934;DHT22;63499;53.232;7.492;2023-03-14T08:43:12;5.10;99.90
74934;DHT22;63499;53.232;7.492;2023-03-14T08:45:38;5.10;99.90
74934;DHT22;63499;53.232;7.492;2023-03-14T08:48:05;4.90;99.90
74934;DHT22;63499;53.232;7.492;2023-03-14T08:50:31;5.00;99.90
74934;DHT22;63499;53.232;7.492;2023-03-14T08:52:57;5.00;99.90
74934;DHT22;63499;53.232;7.492;2023-03-14T08:55:26;5.10;99.90
74934;DHT22;63499;53.232;7.492;2023-03-14T08:57:53;5.00;99.90
74934;DHT22;63499;53.232;7.492;2023-03-14T09:00:19;5.00;99.90
74934;DHT22;63499;53.232;7.492;2023-03-14T09:02:46;5.00;99.90
74934;DHT22;63499;53.232;7.492;2023-03-14T09:05:12;5.00;99.90
74934;DHT22;63499;53.232;7.492;2023-03-14T09:07:38;5.00;99.90
74934;DHT22;63499;53.232;7.492;2023-03-14T09:10:05;5.00;99.90
74934;DHT22;63499;53.232;7.492;2023-03-14T09:12:31;5.10;99.90
74934;DHT22;63499;53.232;7.492;2023-03-14T09:14:58;5.20;99.90
74934;DHT22;63499;53.232;7.492;2023-03-14T09:17:24;5.20;99.90
74934;DHT22;63499;53.232;7.492;2023-03-14T09:19:50;5.20;99.90
74934;DHT22;63499;53.232;7.492;2023-03-14T09:22:16;5.30;99.90
74934;DHT22;63499;53.232;7.492;2023-03-14T09:24:42;5.30;99.90
74934;DHT22;63499;53.232;7.492;2023-03-14T09:27:08;5.30;99.90
74934;DHT22;63499;53.232;7.492;2023-03-14T09:29:34;5.30;99.90
74934;DHT22;63499;53.232;7.492;2023-03-14T09:32:00;5.40;99.90
74934;DHT22;63499;53.232;7.492;2023-03-14T09:34:27;5.40;99.90
74934;DHT22;63499;53.232;7.492;2023-03-14T09:36:53;5.50;99.90
74934;DHT22;63499;53.232;7.492;2023-03-14T09:39:19;5.60;99.90
74934;DHT22;63499;53.232;7.492;2023-03-14T09:41:49;5.70;99.90
74934;DHT22;63499;53.232;7.492;2023-03-14T09:44:30;5.80;99.90
74934;DHT22;63499;53.232;7.492;2023-03-14T09:46:57;5.80;99.90
74934;DHT22;63499;53.232;7.492;2023-03-14T09:49:28;5.80;99.90
74934;DHT22;63499;53.232;7.492;2023-03-14T09:51:55;5.90;99.90
74934;DHT22;63499;53.232;7.492;2023-03-14T09:54:34;6.00;99.90
74934;DHT22;63499;53.232;7.492;2023-03-14T09:57:02;6.00;99.90
74934;DHT22;63499;53.232;7.492;2023-03-14T09:59:31;6.10;99.90
74934;DHT22;63499;53.232;7.492;2023-03-14T10:02:00;6.20;99.90
74934;DHT22;63499;53.232;7.492;2023-03-14T10:04:27;6.20;99.90
74934;DHT22;63499;53.232;7.492;2023-03-14T10:06:54;6.20;99.90
74934;DHT22;63499;53.232;7.492;2023-03-14T10:09:22;6.20;99.90
74934;DHT22;63499;53.232;7.492;2023-03-14T10:11:51;6.20;99.90
74934;DHT22;63499;53.232;7.492;2023-03-14T10:14:28;6.30;99.90
74934;DHT22;63499;53.232;7.492;2023-03-14T10:16:54;6.30;99.90
74934;DHT22;63499;53.232;7.492;2023-03-14T10:19:20;6.40;99.90
74934;DHT22;63499;53.232;7.492;2023-03-14T10:21:51;6.50;99.90
74934;DHT22;63499;53.232;7.492;2023-03-14T10:26:45;6.60;99.90
74934;DHT22;63499;53.232;7.492;2023-03-14T10:29:13;6.60;99.90
74934;DHT22;63499;53.232;7.492;2023-03-14T10:32:17;6.50;99.90
74934;DHT22;63499;53.232;7.492;2023-03-14T10:34:34;6.50;99.90
74934;DHT22;63499;53.232;7.492;2023-03-14T10:39:47;6.50;99.90
74934;DHT22;63499;53.232;7.492;2023-03-14T10:42:25;6.40;99.90
74934;DHT22;63499;53.232;7.492;2023-03-14T10:44:56;6.50;99.90
74934;DHT22;63499;53.232;7.492;2023-03-14T10:47:23;6.60;99.90
74934;DHT22;63499;53.232;7.492;2023-03-14T10:49:50;6.60;99.90
74934;DHT22;63499;53.232;7.492;2023-03-14T10:52:21;6.80;99.90
74934;DHT22;63499;53.232;7.492;2023-03-14T10:54:59;6.80;99.90
74934;DHT22;63499;53.232;7.492;2023-03-14T10:57:29;6.80;99.90
74934;DHT22;63499;53.232;7.492;2023-03-14T10:59:55;6.80;99.90
74934;DHT22;63499;53.232;7.492;2023-03-14T11:05:00;6.70;99.90
74934;DHT22;63499;53.232;7.492;2023-03-14T11:07:34;6.70;99.90
74934;DHT22;63499;53.232;7.492;2023-03-14T11:13:04;6.80;99.90
74934;DHT22;63499;53.232;7.492;2023-03-14T11:26:40;7.30;99.90
74934;DHT22;63499;53.232;7.492;2023-03-14T11:29:22;7.60;99.90
74934;DHT22;63499;53.232;7.492;2023-03-14T11:31:52;7.80;99.90
74934;DHT22;63499;53.232;7.492;2023-03-14T11:34:26;7.90;99.90
74934;DHT22;63499;53.232;7.492;2023-03-14T11:36:56;7.70;99.90
74934;DHT22;63499;53.232;7.492;2023-03-14T11:39:25;7.80;99.90
74934;DHT22;63499;53.232;7.492;2023-03-14T11:41:52;7.80;99.90
74934;DHT22;63499;53.232;7.492;2023-03-14T11:44:21;7.80;99.90
74934;DHT22;63499;53.232;7.492;2023-03-14T11:51:44;7.80;99.90
74934;DHT22;63499;53.232;7.492;2023-03-14T11:54:14;7.90;99.90
74934;DHT22;63499;53.232;7.492;2023-03-14T11:57:24;8.20;99.90
74934;DHT22;63499;53.232;7.492;2023-03-14T12:01:59;8.20;99.90
74934;DHT22;63499;53.232;7.492;2023-03-14T12:07:25;7.80;99.90
74934;DHT22;63499;53.232;7.492;2023-03-14T12:09:55;7.90;99.90
74934;DHT22;63499;53.232;7.492;2023-03-14T12:12:22;7.70;99.90
74934;DHT22;63499;53.232;7.492;2023-03-14T12:14:54;7.60;99.90
74934;DHT22;63499;53.232;7.492;2023-03-14T12:17:22;7.50;99.90
74934;DHT22;63499;53.232;7.492;2023-03-14T12:20:31;7.60;99.90
74934;DHT22;63499;53.232;7.492;2023-03-14T12:22:41;7.70;99.90
74934;DHT22;63499;53.232;7.492;2023-03-14T12:27:42;8.00;99.90
74934;DHT22;63499;53.232;7.492;2023-03-14T12:35:35;8.80;99.90
74934;DHT22;63499;53.232;7.492;2023-03-14T12:38:03;8.80;99.90
74934;DHT22;63499;53.232;7.492;2023-03-14T12:40:35;8.70;99.90
74934;DHT22;63499;53.232;7.492;2023-03-14T12:43:04;8.30;99.90
74934;DHT22;63499;53.232;7.492;2023-03-14T12:48:35;8.10;99.90
74934;DHT22;63499;53.232;7.492;2023-03-14T12:51:04;7.90;99.90
74934;DHT22;63499;53.232;7.492;2023-03-14T13:01:19;7.50;99.90
74934;DHT22;63499;53.232;7.492;2023-03-14T13:03:47;7.50;99.90
74934;DHT22;63499;53.232;7.492;2023-03-14T13:09:34;7.90;99.90
74934;DHT22;63499;53.232;7.492;2023-03-14T13:11:47;8.30;99.90
74934;DHT22;63499;53.232;7.492;2023-03-14T13:14:13;8.70;99.90
74934;DHT22;63499;53.232;7.492;2023-03-14T13:16:39;8.70;99.90
74934;DHT22;63499;53.232;7.492;2023-03-14T13:19:24;9.00;99.90
74934;DHT22;63499;53.232;7.492;2023-03-14T13:21:51;9.30;99.70
74934;DHT22;63499;53.232;7.492;2023-03-14T13:24:23;9.70;99.90
74934;DHT22;63499;53.232;7.492;2023-03-14T13:26:49;9.60;98.20
74934;DHT22;63499;53.232;7.492;2023-03-14T13:29:28;9.50;99.20
74934;DHT22;63499;53.232;7.492;2023-03-14T13:31:58;9.50;98.90
74934;DHT22;63499;53.232;7.492;2023-03-14T13:34:28;9.10;98.30
74934;DHT22;63499;53.232;7.492;2023-03-14T13:36:55;8.90;99.40
74934;DHT22;63499;53.232;7.492;2023-03-14T13:39:23;8.60;98.80
74934;DHT22;63499;53.232;7.492;2023-03-14T13:41:51;8.40;99.60
74934;DHT22;63499;53.232;7.492;2023-03-14T13:44:27;8.40;99.90
74934;DHT22;63499;53.232;7.492;2023-03-14T13:46:58;8.30;99.90
74934;DHT22;63499;53.232;7.492;2023-03-14T13:49:25;8.60;99.90
74934;DHT22;63499;53.232;7.492;2023-03-14T13:51:51;9.00;99.60
74934;DHT22;63499;53.232;7.492;2023-03-14T13:54:19;9.40;99.50
74934;DHT22;63499;53.232;7.492;2023-03-14T13:56:46;9.80;98.70
74934;DHT22;63499;53.232;7.492;2023-03-14T13:59:22;9.80;99.10
74934;DHT22;63499;53.232;7.492;2023-03-14T14:01:49;9.30;99.50
74934;DHT22;63499;53.232;7.492;2023-03-14T14:04:16;9.20;99.90
74934;DHT22;63499;53.232;7.492;2023-03-14T14:06:46;8.90;99.80
74934;DHT22;63499;53.232;7.492;2023-03-14T14:09:16;8.90;99.80
74934;DHT22;63499;53.232;7.492;2023-03-14T14:14:25;8.90;98.10
74934;DHT22;63499;53.232;7.492;2023-03-14T14:16:53;8.60;97.00
74934;DHT22;63499;53.232;7.492;2023-03-14T14:19:20;8.40;97.50
74934;DHT22;63499;53.232;7.492;2023-03-14T14:21:49;8.50;98.50
74934;DHT22;63499;53.232;7.492;2023-03-14T14:24:15;8.40;99.30
74934;DHT22;63499;53.232;7.492;2023-03-14T14:26:54;8.40;99.90
74934;DHT22;63499;53.232;7.492;2023-03-14T14:29:31;8.50;99.90
74934;DHT22;63499;53.232;7.492;2023-03-14T14:34:42;8.20;97.30
74934;DHT22;63499;53.232;7.492;2023-03-14T14:37:19;8.10;98.50
74934;DHT22;63499;53.232;7.492;2023-03-14T14:39:45;8.40;97.40
74934;DHT22;63499;53.232;7.492;2023-03-14T14:42:14;8.20;96.50
74934;DHT22;63499;53.232;7.492;2023-03-14T14:44:41;8.20;96.40
74934;DHT22;63499;53.232;7.492;2023-03-14T14:47:15;8.50;96.80
74934;DHT22;63499;53.232;7.492;2023-03-14T14:49:44;9.30;96.10
74934;DHT22;63499;53.232;7.492;2023-03-14T14:52:13;9.40;95.00
74934;DHT22;63499;53.232;7.492;2023-03-14T14:54:58;9.70;96.30
74934;DHT22;63499;53.232;7.492;2023-03-14T14:57:28;9.40;95.10
74934;DHT22;63499;53.232;7.492;2023-03-14T14:59:56;9.00;95.80
74934;DHT22;63499;53.232;7.492;2023-03-14T15:05:25;8.80;98.30
74934;DHT22;63499;53.232;7.492;2023-03-14T15:07:52;9.70;99.50
74934;DHT22;63499;53.232;7.492;2023-03-14T15:10:20;10.90;99.40
74934;DHT22;63499;53.232;7.492;2023-03-14T15:12:46;10.90;96.30
74934;DHT22;63499;53.232;7.492;2023-03-14T15:15:13;10.20;95.60
74934;DHT22;63499;53.232;7.492;2023-03-14T15:17:40;9.80;96.90
74934;DHT22;63499;53.232;7.492;2023-03-14T15:20:09;9.50;96.60
74934;DHT22;63499;53.232;7.492;2023-03-14T15:22:36;9.10;97.70
74934;DHT22;63499;53.232;7.492;2023-03-14T15:25:02;9.10;98.80
74934;DHT22;63499;53.232;7.492;2023-03-14T15:27:28;9.10;98.00
74934;DHT22;63499;53.232;7.492;2023-03-14T15:29:56;9.90;98.40
74934;DHT22;63499;53.232;7.492;2023-03-14T15:32:24;10.50;98.10
74934;DHT22;63499;53.232;7.492;2023-03-14T15:34:54;10.40;95.40
74934;DHT22;63499;53.232;7.492;2023-03-14T15:37:20;11.20;97.10
74934;DHT22;63499;53.232;7.492;2023-03-14T15:39:46;10.60;94.10
74934;DHT22;63499;53.232;7.492;2023-03-14T15:42:12;10.00;94.40
74934;DHT22;63499;53.232;7.492;2023-03-14T15:44:38;10.50;94.90
74934;DHT22;63499;53.232;7.492;2023-03-14T15:47:08;10.90;93.90
74934;DHT22;63499;53.232;7.492;2023-03-14T15:49:35;11.30;92.40
74934;DHT22;63499;53.232;7.492;2023-03-14T15:52:02;11.00;91.50
74934;DHT22;63499;53.232;7.492;2023-03-14T15:54:28;10.30;92.10
74934;DHT22;63499;53.232;7.492;2023-03-14T15:56:55;9.60;92.50
74934;DHT22;63499;53.232;7.492;2023-03-14T15:59:21;9.10;91.80
74934;DHT22;63499;53.232;7.492;2023-03-14T16:01:47;9.20;92.50
74934;DHT22;63499;53.232;7.492;2023-03-14T16:04:14;9.60;93.50
74934;DHT22;63499;53.232;7.492;2023-03-14T16:06:43;10.30;94.40
74934;DHT22;63499;53.232;7.492;2023-03-14T16:09:10;11.00;93.60
74934;DHT22;63499;53.232;7.492;2023-03-14T16:11:37;11.60;94.20
74934;DHT22;63499;53.232;7.492;2023-03-14T16:14:03;11.00;92.60
74934;DHT22;63499;53.232;7.492;2023-03-14T16:16:29;10.30;92.70
74934;DHT22;63499;53.232;7.492;2023-03-14T16:18:55;9.40;95.30
74934;DHT22;63499;53.232;7.492;2023-03-14T16:21:22;8.40;99.90
74934;DHT22;63499;53.232;7.492;2023-03-14T16:23:48;7.70;99.90
74934;DHT22;63499;53.232;7.492;2023-03-14T16:26:15;7.20;99.90
74934;DHT22;63499;53.232;7.492;2023-03-14T16:28:42;6.90;99.90
74934;DHT22;63499;53.232;7.492;2023-03-14T16:31:11;6.50;99.90
74934;DHT22;63499;53.232;7.492;2023-03-14T16:33:39;6.40;99.90
74934;DHT22;63499;53.232;7.492;2023-03-14T16:36:05;6.20;99.90
74934;DHT22;63499;53.232;7.492;2023-03-14T16:38:34;5.90;99.90
74934;DHT22;63499;53.232;7.492;2023-03-14T16:41:09;5.70;99.90
74934;DHT22;63499;53.232;7.492;2023-03-14T16:43:37;5.70;99.90
74934;DHT22;63499;53.232;7.492;2023-03-14T16:46:04;5.60;99.90
74934;DHT22;63499;53.232;7.492;2023-03-14T16:48:30;5.70;99.90
74934;DHT22;63499;53.232;7.492;2023-03-14T16:50:56;5.80;99.90
74934;DHT22;63499;53.232;7.492;2023-03-14T16:53:22;5.90;99.90
74934;DHT22;63499;53.232;7.492;2023-03-14T16:55:49;5.90;99.90
74934;DHT22;63499;53.232;7.492;2023-03-14T16:58:16;6.00;99.90
74934;DHT22;63499;53.232;7.492;2023-03-14T17:00:45;6.00;99.90
74934;DHT22;63499;53.232;7.492;2023-03-14T17:03:11;5.90;99.90
74934;DHT22;63499;53.232;7.492;2023-03-14T17:05:37;5.80;99.90
74934;DHT22;63499;53.232;7.492;2023-03-14T17:08:09;5.80;99.90
74934;DHT22;63499;53.232;7.492;2023-03-14T17:10:35;5.70;99.90
74934;DHT22;63499;53.232;7.492;2023-03-14T17:13:01;5.70;99.90
74934;DHT22;63499;53.232;7.492;2023-03-14T17:15:27;5.70;99.90
74934;DHT22;63499;53.232;7.492;2023-03-14T17:17:53;5.70;99.90
74934;DHT22;63499;53.232;7.492;2023-03-14T17:20:19;5.60;99.90
74934;DHT22;63499;53.232;7.492;2023-03-14T17:22:46;5.50;99.90
74934;DHT22;63499;53.232;7.492;2023-03-14T17:25:12;5.50;99.90
74934;DHT22;63499;53.232;7.492;2023-03-14T17:27:38;5.50;99.90
74934;DHT22;63499;53.232;7.492;2023-03-14T17:30:05;5.40;99.90
74934;DHT22;63499;53.232;7.492;2023-03-14T17:32:31;5.30;99.90
74934;DHT22;63499;53.232;7.492;2023-03-14T17:34:57;5.30;99.90
74934;DHT22;63499;53.232;7.492;2023-03-14T17:37:26;5.30;99.90
74934;DHT22;63499;53.232;7.492;2023-03-14T17:39:53;5.30;99.90
74934;DHT22;63499;53.232;7.492;2023-03-14T17:42:19;5.40;99.90
74934;DHT22;63499;53.232;7.492;2023-03-14T17:44:46;5.40;99.90
74934;DHT22;63499;53.232;7.492;2023-03-14T17:47:12;5.40;99.90
74934;DHT22;63499;53.232;7.492;2023-03-14T17:49:40;5.30;99.90
74934;DHT22;63499;53.232;7.492;2023-03-14T17:52:06;5.30;99.90
74934;DHT22;63499;53.232;7.492;2023-03-14T17:54:33;5.20;99.90
74934;DHT22;63499;53.232;7.492;2023-03-14T17:56:59;5.10;99.90
74934;DHT22;63499;53.232;7.492;2023-03-14T17:59:25;5.10;99.90
74934;DHT22;63499;53.232;7.492;2023-03-14T18:01:52;5.00;99.90
74934;DHT22;63499;53.232;7.492;2023-03-14T18:04:18;4.90;99.90
74934;DHT22;63499;53.232;7.492;2023-03-14T18:06:45;4.90;99.90
74934;DHT22;63499;53.232;7.492;2023-03-14T18:09:12;4.80;99.90
74934;DHT22;63499;53.232;7.492;2023-03-14T18:11:39;4.90;99.90
74934;DHT22;63499;53.232;7.492;2023-03-14T18:14:06;4.80;99.90
74934;DHT22;63499;53.232;7.492;2023-03-14T18:16:33;4.70;99.90
74934;DHT22;63499;53.232;7.492;2023-03-14T18:19:00;4.60;99.90
74934;DHT22;63499;53.232;7.492;2023-03-14T18:21:27;4.40;99.90
74934;DHT22;63499;53.232;7.492;2023-03-14T18:23:56;4.30;99.90
74934;DHT22;63499;53.232;7.492;2023-03-14T18:26:23;4.40;99.90
74934;DHT22;63499;53.232;7.492;2023-03-14T18:28:52;4.30;99.90
74934;DHT22;63499;53.232;7.492;2023-03-14T18:31:19;4.30;99.90
74934;DHT22;63499;53.232;7.492;2023-03-14T18:33:48;4.20;99.90
74934;DHT22;63499;53.232;7.492;2023-03-14T18:36:14;4.20;99.90
74934;DHT22;63499;53.232;7.492;2023-03-14T18:38:41;4.20;99.90
74934;DHT22;63499;53.232;7.492;2023-03-14T18:41:08;4.20;99.90
74934;DHT22;63499;53.232;7.492;2023-03-14T18:43:36;4.20;99.90
74934;DHT22;63499;53.232;7.492;2023-03-14T18:46:03;4.20;99.90
74934;DHT22;63499;53.232;7.492;2023-03-14T18:48:29;4.20;99.90
74934;DHT22;63499;53.232;7.492;2023-03-14T18:50:59;4.00;99.90
74934;DHT22;63499;53.232;7.492;2023-03-14T18:53:25;3.90;99.90
74934;DHT22;63499;53.232;7.492;2023-03-14T18:55:57;3.80;99.90
74934;DHT22;63499;53.232;7.492;2023-03-14T18:58:24;3.80;99.90
74934;DHT22;63499;53.232;7.492;2023-03-14T19:00:57;3.80;99.90
74934;DHT22;63499;53.232;7.492;2023-03-14T19:03:24;3.60;99.90
74934;DHT22;63499;53.232;7.492;2023-03-14T19:05:51;3.60;99.90
74934;DHT22;63499;53.232;7.492;2023-03-14T19:08:17;3.50;99.90
74934;DHT22;63499;53.232;7.492;2023-03-14T19:10:44;3.40;99.90
74934;DHT22;63499;53.232;7.492;2023-03-14T19:13:10;3.40;99.90
74934;DHT22;63499;53.232;7.492;2023-03-14T19:15:37;3.40;99.90
74934;DHT22;63499;53.232;7.492;2023-03-14T19:18:03;3.30;99.90
74934;DHT22;63499;53.232;7.492;2023-03-14T19:20:33;3.20;99.90
74934;DHT22;63499;53.232;7.492;2023-03-14T19:23:00;3.20;99.90
74934;DHT22;63499;53.232;7.492;2023-03-14T19:25:26;3.10;99.90
74934;DHT22;63499;53.232;7.492;2023-03-14T19:27:52;3.10;99.90
74934;DHT22;63499;53.232;7.492;2023-03-14T19:30:18;3.10;99.90
74934;DHT22;63499;53.232;7.492;2023-03-14T19:32:47;2.90;99.90
74934;DHT22;63499;53.232;7.492;2023-03-14T19:35:13;2.90;99.90
74934;DHT22;63499;53.232;7.492;2023-03-14T19:37:39;2.90;99.90
74934;DHT22;63499;53.232;7.492;2023-03-14T19:40:06;2.90;99.90
74934;DHT22;63499;53.232;7.492;2023-03-14T19:42:37;3.00;99.90
74934;DHT22;63499;53.232;7.492;2023-03-14T19:45:03;2.90;99.90
74934;DHT22;63499;53.232;7.492;2023-03-14T19:47:30;2.90;99.90
74934;DHT22;63499;53.232;7.492;2023-03-14T19:49:57;2.90;99.90
74934;DHT22;63499;53.232;7.492;2023-03-14T19:52:24;2.90;99.90
74934;DHT22;63499;53.232;7.492;2023-03-14T19:54:52;2.90;99.90
74934;DHT22;63499;53.232;7.492;2023-03-14T19:57:19;3.00;99.90
74934;DHT22;63499;53.232;7.492;2023-03-14T19:59:46;2.90;99.90
74934;DHT22;63499;53.232;7.492;2023-03-14T20:02:15;2.90;99.90
74934;DHT22;63499;53.232;7.492;2023-03-14T20:04:42;2.90;99.90
74934;DHT22;63499;53.232;7.492;2023-03-14T20:07:09;2.90;99.90
74934;DHT22;63499;53.232;7.492;2023-03-14T20:09:37;3.00;99.90
74934;DHT22;63499;53.232;7.492;2023-03-14T20:12:03;2.90;99.90
74934;DHT22;63499;53.232;7.492;2023-03-14T20:14:30;2.70;99.90
74934;DHT22;63499;53.232;7.492;2023-03-14T20:16:56;2.70;99.90
74934;DHT22;63499;53.232;7.492;2023-03-14T20:19:22;2.70;99.90
74934;DHT22;63499;53.232;7.492;2023-03-14T20:21:48;2.60;99.90
74934;DHT22;63499;53.232;7.492;2023-03-14T20:24:16;2.50;99.90
74934;DHT22;63499;53.232;7.492;2023-03-14T20:26:42;2.50;99.90
74934;DHT22;63499;53.232;7.492;2023-03-14T20:29:08;2.50;99.90
74934;DHT22;63499;53.232;7.492;2023-03-14T20:31:34;2.50;99.90
74934;DHT22;63499;53.232;7.492;2023-03-14T20:34:03;2.40;99.90
74934;DHT22;63499;53.232;7.492;2023-03-14T20:36:32;2.50;99.90
74934;DHT22;63499;53.232;7.492;2023-03-14T20:39:00;2.50;99.90
74934;DHT22;63499;53.232;7.492;2023-03-14T20:41:26;2.50;99.90
74934;DHT22;63499;53.232;7.492;2023-03-14T20:43:53;2.50;99.90
74934;DHT22;63499;53.232;7.492;2023-03-14T20:46:19;2.70;99.90
74934;DHT22;63499;53.232;7.492;2023-03-14T20:48:45;2.80;99.90
74934;DHT22;63499;53.232;7.492;2023-03-14T20:51:11;2.80;99.90
74934;DHT22;63499;53.232;7.492;2023-03-14T20:53:38;2.80;99.90
74934;DHT22;63499;53.232;7.492;2023-03-14T20:56:04;2.80;99.90
74934;DHT22;63499;53.232;7.492;2023-03-14T20:58:30;2.70;99.90
74934;DHT22;63499;53.232;7.492;2023-03-14T21:00:56;2.70;99.90
74934;DHT22;63499;53.232;7.492;2023-03-14T21:03:23;2.70;99.90
74934;DHT22;63499;53.232;7.492;2023-03-14T21:05:49;2.70;99.90
74934;DHT22;63499;53.232;7.492;2023-03-14T21:08:17;2.70;99.90
74934;DHT22;63499;53.232;7.492;2023-03-14T21:10:47;2.70;99.90
74934;DHT22;63499;53.232;7.492;2023-03-14T21:13:13;2.70;99.90
74934;DHT22;63499;53.232;7.492;2023-03-14T21:15:39;2.70;99.90
74934;DHT22;63499;53.232;7.492;2023-03-14T21:18:05;2.80;99.90
74934;DHT22;63499;53.232;7.492;2023-03-14T21:20:32;2.80;99.90
74934;DHT22;63499;53.232;7.492;2023-03-14T21:22:58;2.80;99.90
74934;DHT22;63499;53.232;7.492;2023-03-14T21:25:24;2.80;99.90
74934;DHT22;63499;53.232;7.492;2023-03-14T21:27:50;2.80;99.90
74934;DHT22;63499;53.232;7.492;2023-03-14T21:30:16;2.70;99.90
74934;DHT22;63499;53.232;7.492;2023-03-14T21:32:42;2.60;99.90
74934;DHT22;63499;53.232;7.492;2023-03-14T21:35:08;2.60;99.90
74934;DHT22;63499;53.232;7.492;2023-03-14T21:37:35;2.50;99.90
74934;DHT22;63499;53.232;7.492;2023-03-14T21:40:01;2.40;99.90
74934;DHT22;63499;53.232;7.492;2023-03-14T21:42:27;2.20;99.90
74934;DHT22;63499;53.232;7.492;2023-03-14T21:44:53;2.10;99.90
74934;DHT22;63499;53.232;7.492;2023-03-14T21:47:19;2.10;99.90
74934;DHT22;63499;53.232;7.492;2023-03-14T21:49:49;2.10;99.90
74934;DHT22;63499;53.232;7.492;2023-03-14T21:52:14;2.10;99.90
74934;DHT22;63499;53.232;7.492;2023-03-14T21:54:41;2.20;99.90
74934;DHT22;63499;53.232;7.492;2023-03-14T21:57:07;2.30;99.90
74934;DHT22;63499;53.232;7.492;2023-03-14T21:59:34;2.30;99.90
74934;DHT22;63499;53.232;7.492;2023-03-14T22:02:04;2.40;99.90
74934;DHT22;63499;53.232;7.492;2023-03-14T22:04:32;2.50;99.90
74934;DHT22;63499;53.232;7.492;2023-03-14T22:07:08;2.50;99.90
74934;DHT22;63499;53.232;7.492;2023-03-14T22:09:35;2.50;99.90
74934;DHT22;63499;53.232;7.492;2023-03-14T22:12:01;2.60;99.90
74934;DHT22;63499;53.232;7.492;2023-03-14T22:14:30;2.50;99.90
74934;DHT22;63499;53.232;7.492;2023-03-14T22:16:56;2.50;99.90
74934;DHT22;63499;53.232;7.492;2023-03-14T22:19:25;2.60;99.90
74934;DHT22;63499;53.232;7.492;2023-03-14T22:21:51;2.50;99.90
74934;DHT22;63499;53.232;7.492;2023-03-14T22:24:18;2.50;99.90
74934;DHT22;63499;53.232;7.492;2023-03-14T22:26:44;2.50;99.90
74934;DHT22;63499;53.232;7.492;2023-03-14T22:29:10;2.50;99.90
74934;DHT22;63499;53.232;7.492;2023-03-14T22:31:36;2.50;99.90
74934;DHT22;63499;53.232;7.492;2023-03-14T22:34:02;2.40;99.90
74934;DHT22;63499;53.232;7.492;2023-03-14T22:36:28;2.40;99.90
74934;DHT22;63499;53.232;7.492;2023-03-14T22:38:55;2.40;99.90
74934;DHT22;63499;53.232;7.492;2023-03-14T22:41:22;2.40;99.90
74934;DHT22;63499;53.232;7.492;2023-03-14T22:43:48;2.40;99.90
74934;DHT22;63499;53.232;7.492;2023-03-14T22:46:14;2.40;99.90
74934;DHT22;63499;53.232;7.492;2023-03-14T22:48:40;2.40;99.90
74934;DHT22;63499;53.232;7.492;2023-03-14T22:51:07;2.30;99.90
74934;DHT22;63499;53.232;7.492;2023-03-14T22:53:34;2.30;99.90
74934;DHT22;63499;53.232;7.492;2023-03-14T22:56:01;2.40;99.90
74934;DHT22;63499;53.232;7.492;2023-03-14T22:58:28;2.40;99.90
74934;DHT22;63499;53.232;7.492;2023-03-14T23:00:54;2.40;99.90
74934;DHT22;63499;53.232;7.492;2023-03-14T23:03:20;2.40;99.90
74934;DHT22;63499;53.232;7.492;2023-03-14T23:05:46;2.30;99.90
74934;DHT22;63499;53.232;7.492;2023-03-14T23:08:13;2.40;99.90
74934;DHT22;63499;53.232;7.492;2023-03-14T23:10:39;2.40;99.90
74934;DHT22;63499;53.232;7.492;2023-03-14T23:13:06;2.40;99.90
74934;DHT22;63499;53.232;7.492;2023-03-14T23:15:32;2.40;99.90
74934;DHT22;63499;53.232;7.492;2023-03-14T23:17:59;2.30;99.90
74934;DHT22;63499;53.232;7.492;2023-03-14T23:20:25;2.30;99.90
74934;DHT22;63499;53.232;7.492;2023-03-14T23:22:52;2.30;99.90
74934;DHT22;63499;53.232;7.492;2023-03-14T23:25:18;2.30;99.90
74934;DHT22;63499;53.232;7.492;2023-03-14T23:27:44;2.30;99.90
74934;DHT22;63499;53.232;7.492;2023-03-14T23:30:12;2.30;99.90
74934;DHT22;63499;53.232;7.492;2023-03-14T23:32:38;2.20;99.90
74934;DHT22;63499;53.232;7.492;2023-03-14T23:35:04;2.20;99.90
74934;DHT22;63499;53.232;7.492;2023-03-14T23:37:30;2.20;99.90
74934;DHT22;63499;53.232;7.492;2023-03-14T23:39:58;2.20;99.90
74934;DHT22;63499;53.232;7.492;2023-03-14T23:42:24;2.20;99.90
74934;DHT22;63499;53.232;7.492;2023-03-14T23:44:51;2.20;99.90
74934;DHT22;63499;53.232;7.492;2023-03-14T23:47:17;2.20;99.90
74934;DHT22;63499;53.232;7.492;2023-03-14T23:49:43;2.10;99.90
74934;DHT22;63499;53.232;7.492;2023-03-14T23:52:09;2.10;99.90
74934;DHT22;63499;53.232;7.492;2023-03-14T23:54:36;2.20;99.90
74934;DHT22;63499;53.232;7.492;2023-03-14T23:57:02;2.10;99.90
74934;DHT22;63499;53.232;7.492;2023-03-14T23:59:30;2.10;99.90
